Airfield :
LOGIN :

Register | Disclaimer

   EN    FR    IT 

 










Legend :    VFR   Marginal VFR   IFR   Intensive IFR   Very Intensive IFR
Visi :
Ceiling :
>= 8 km
>= 3000ft
5 to 8 km
1000 to 3000 ft
1500m to 5 km
500 to 1000 ft
800 to 1500m
200 to 500 ft
< 800m
< 200 ft
Symbols :   Thunderstorms  Fog  Heavy snow  Heavy precipitations  Wind > 20 kt
SIGMETs :     Misc.  Thunderstorms  Icing  Turbulence  Mountain Waves  Volcanic Ashes






- Airport Elevation : 162 ft
- IATA code : BOD


LFBD - Bordeaux / Merignac

CURRENT METAR :
  • 250700Z AUTO 00000KT 1800 0250 R23/2300U R05/0250N R29/1600U BCFG NSC M01/M02 Q1033 TEMPO 0300 FG VV///

EXPIRED METARs :
  • 250630Z AUTO 12003KT 2500 0450 R23/P2300 R05/0500D R29/P2300 BCFG NSC M00/M00 Q1032 TEMPO 0300 FG VV///
  • 250600Z AUTO 11004KT 3000 0900 R23/2000U R05/1400D R29/1300D BCFG NSC M00/M00 Q1032 TEMPO 0300 FG VV///
  • 250530Z AUTO 10002KT 1600 0450 R23/1100U R05/1300U R29/P2300 BCFG NSC M01/M01 Q1032 TEMPO 0300 FG VV///
  • 250500Z AUTO 10003KT 2600 0350 R23/0400N R05/1300D R29/1900U BCFG NSC M01/M01 Q1032 TEMPO 0300 FG VV///
  • 250430Z AUTO 00000KT 0450 0300 R23/0450D R05/0375U R29/P2300U FZFG NSC M01/M02 Q1032 TEMPO 0300 FG VV///

TAF TAF LFBD
Valid from the 25 at 06:00 until the 26 at 12:00 UTC


250500Z 2506/2612 VRB03KT 4000 BR NSC TX10/2514Z TNM02/2506Z
PROB40 2506/2509 0300 FG VV///
BECMG 2510/2512 CAVOK
BECMG 2517/2519 3000 BR
PROB40 2521/2610 0500 FG VV///
PROB30 2610/2612 BKN005
ATIS : +33 5 57 92 81 04



MET'MAP, your aeronautical weather chart ! - Copyright ORBIFLY December 2007 - Disclaimer

ORBIFLY MET'MAP TEAM :

Programming & Development : Alexandra Zaïnal
Original concept : Baudouin d'Aumeries
Technical & hardware support : Manuel Goepfert
Assistance : Marc-Olivier Méhu

Contact : metmap@orbifly.com




SOURCES & CREDITS :

   NOAA